Salida, Colorado
Current Conditions -  °F | °C
As of 5:35 AM on Tuesday 27 Jan 2015 (Local Time) from KANK Reporting Station
Clear Clear  
Wind Chill: 24°   Ceiling: Unl
Heat Index: 32°   Visibility: 10mi
Dew Point: 19°   Wind: 10mph
Humidity: 59%   Direction: 330°NNW
Pressure: 30.44"   Gusts: NA
Location:  38.53°N, 106°W
Report Text: KANK 271235Z AUTO 33009KT 10SM CLR 00/M07 A3044 RMK AO1 T00001072
Loading
Personal Weather Stations






























Interactive Weather Map New forecast layout! Learn more

10-Day Weather Forecast

Advertisements
Track Severe Weather on mobile